createdAt,value
2017-07-03T00:02:16.762Z,2.53
2017-07-03T00:04:45.971Z,2.07
2017-07-03T00:07:14.485Z,3.70
2017-07-03T00:09:42.945Z,1.50
2017-07-03T00:12:11.593Z,2.50
2017-07-03T00:14:40.803Z,2.37
2017-07-03T00:17:10.026Z,2.13
2017-07-03T00:19:38.538Z,3.80
2017-07-03T00:22:07.778Z,2.23
2017-07-03T00:24:36.876Z,3.10
2017-07-03T00:27:05.429Z,3.00
2017-07-03T00:29:33.953Z,2.40
2017-07-03T00:32:02.442Z,2.47
2017-07-03T00:34:31.034Z,2.10
2017-07-03T00:36:59.932Z,2.67
2017-07-03T00:39:28.486Z,2.50
2017-07-03T00:41:57.777Z,2.67
2017-07-03T00:44:27.038Z,2.07
2017-07-03T00:46:55.545Z,2.87
2017-07-03T00:49:24.062Z,2.30
2017-07-03T00:51:52.768Z,2.80
2017-07-03T00:54:21.269Z,2.30
2017-07-03T00:56:49.798Z,2.27
2017-07-03T00:59:19.044Z,3.10
2017-07-03T01:01:47.533Z,2.23
2017-07-03T01:04:16.403Z,2.97
2017-07-03T01:06:44.931Z,2.73
2017-07-03T01:09:13.442Z,3.10
2017-07-03T01:11:42.683Z,2.30
2017-07-03T01:14:11.301Z,2.40
2017-07-03T01:16:39.780Z,3.00
2017-07-03T01:19:08.390Z,2.60
2017-07-03T01:21:37.011Z,2.30
2017-07-03T01:24:05.492Z,2.97
2017-07-03T01:26:34.425Z,2.83
2017-07-03T01:29:03.329Z,3.20
2017-07-03T01:31:31.898Z,2.87
2017-07-03T01:34:00.375Z,3.13
2017-07-03T01:36:28.872Z,3.40
2017-07-03T01:38:57.424Z,2.40
2017-07-03T01:41:25.964Z,2.80
2017-07-03T01:43:56.733Z,3.53
2017-07-03T01:46:25.233Z,2.37
2017-07-03T01:48:54.036Z,2.67
2017-07-03T01:51:22.520Z,2.50
2017-07-03T01:53:51.000Z,3.00
2017-07-03T01:56:19.868Z,2.30
2017-07-03T01:58:48.525Z,2.77
2017-07-03T02:01:18.046Z,2.20
2017-07-03T02:03:46.789Z,2.97
2017-07-03T02:06:15.625Z,3.00
2017-07-03T02:08:44.149Z,2.50
2017-07-03T02:11:12.636Z,2.43
2017-07-03T02:13:41.102Z,2.20
2017-07-03T02:16:09.644Z,2.33
2017-07-03T02:18:38.453Z,2.60
2017-07-03T02:21:07.066Z,2.53
2017-07-03T02:23:36.054Z,2.53
2017-07-03T02:26:04.516Z,1.90
2017-07-03T02:28:32.999Z,2.30
2017-07-03T02:31:01.491Z,2.60
2017-07-03T02:33:30.047Z,3.10
2017-07-03T02:35:59.273Z,2.70
2017-07-03T02:38:27.782Z,2.67
2017-07-03T02:40:56.565Z,2.40
2017-07-03T02:43:25.538Z,3.63
2017-07-03T02:45:54.116Z,3.23
2017-07-03T02:48:22.657Z,2.60
2017-07-03T02:50:51.092Z,2.87
2017-07-03T02:53:19.548Z,2.00
2017-07-03T02:55:48.485Z,2.60
2017-07-03T02:58:17.063Z,2.70
2017-07-03T03:00:45.519Z,2.40
2017-07-03T03:03:14.034Z,3.00
2017-07-03T03:05:42.812Z,2.30
2017-07-03T03:08:15.045Z,2.37
2017-07-03T03:10:43.497Z,2.50
2017-07-03T03:13:11.996Z,2.50
2017-07-03T03:15:40.584Z,2.03
2017-07-03T03:18:11.178Z,2.40
2017-07-03T03:20:39.685Z,2.23
2017-07-03T03:23:10.440Z,2.23
2017-07-03T03:25:39.773Z,2.57
2017-07-03T03:28:08.277Z,3.00
2017-07-03T03:30:37.242Z,2.30
2017-07-03T03:33:05.714Z,2.17
2017-07-03T03:35:34.217Z,2.13
2017-07-03T03:38:02.822Z,1.90
2017-07-03T03:40:31.345Z,2.27
2017-07-03T03:43:00.573Z,2.50
2017-07-03T03:45:29.271Z,2.50
2017-07-03T03:47:58.130Z,2.70
2017-07-03T03:50:27.492Z,2.07
2017-07-03T03:52:55.962Z,2.00
2017-07-03T03:55:24.777Z,2.30
2017-07-03T03:57:53.424Z,2.73
2017-07-03T04:00:22.053Z,3.40
2017-07-03T04:02:50.513Z,3.23
2017-07-03T04:05:19.436Z,2.00
2017-07-03T04:07:48.071Z,2.17
2017-07-03T04:10:16.555Z,2.43
2017-07-03T04:12:45.209Z,2.47
2017-07-03T04:15:14.684Z,1.90
2017-07-03T04:17:43.548Z,2.20
2017-07-03T04:20:12.114Z,2.37
2017-07-03T04:22:40.610Z,2.13
2017-07-03T04:25:09.113Z,1.83
2017-07-03T04:27:37.605Z,2.10
2017-07-03T04:30:06.602Z,2.30
2017-07-03T04:32:35.173Z,2.10
2017-07-03T04:35:03.439Z,2.53
2017-07-03T04:37:32.105Z,1.77
2017-07-03T04:40:00.742Z,2.20
2017-07-03T04:42:29.254Z,2.40
2017-07-03T04:44:58.515Z,2.50
2017-07-03T04:47:27.391Z,2.50
2017-07-03T04:49:55.951Z,2.73
2017-07-03T04:52:24.850Z,2.43
2017-07-03T04:54:53.372Z,1.80
2017-07-03T04:57:21.942Z,2.40
2017-07-03T04:59:50.606Z,2.03
2017-07-03T05:02:19.137Z,2.40
2017-07-03T05:04:48.389Z,1.60
2017-07-03T05:07:16.989Z,2.10
2017-07-03T05:09:45.966Z,1.60
2017-07-03T05:12:14.475Z,2.03
2017-07-03T05:14:43.175Z,2.17
2017-07-03T05:17:11.817Z,1.80
2017-07-03T05:19:40.434Z,2.20
2017-07-03T05:22:10.124Z,1.83
2017-07-03T05:24:38.669Z,1.60
2017-07-03T05:27:07.153Z,2.27
2017-07-03T05:29:36.508Z,2.17
2017-07-03T05:32:06.357Z,2.07
2017-07-03T05:34:34.841Z,1.67
2017-07-03T05:37:03.425Z,1.80
2017-07-03T05:39:31.886Z,2.07
2017-07-03T05:42:00.380Z,2.30
2017-07-03T05:44:29.160Z,2.07
2017-07-03T05:46:57.836Z,1.50
2017-07-03T05:49:26.811Z,1.70
2017-07-03T05:51:55.269Z,1.97
2017-07-03T05:54:24.020Z,2.03
2017-07-03T05:56:52.753Z,1.70
2017-07-03T05:59:21.460Z,2.30
2017-07-03T06:01:49.940Z,2.07
2017-07-03T06:04:18.748Z,1.90
2017-07-03T06:06:47.385Z,2.40
2017-07-03T06:09:16.193Z,2.20
2017-07-03T06:11:44.941Z,2.17
2017-07-03T06:14:13.528Z,2.10
2017-07-03T06:16:42.033Z,2.50
2017-07-03T06:19:10.685Z,1.83
2017-07-03T06:21:39.246Z,1.73
2017-07-03T06:24:07.779Z,2.53
2017-07-03T06:26:36.990Z,2.43
2017-07-03T06:29:05.908Z,2.07
2017-07-03T06:31:34.540Z,2.63
2017-07-03T06:34:02.999Z,2.07
2017-07-03T06:36:31.512Z,1.53
2017-07-03T06:38:59.973Z,1.80
2017-07-03T06:41:28.764Z,1.60
2017-07-03T06:43:57.273Z,1.40
2017-07-03T06:46:25.719Z,1.57
2017-07-03T06:48:54.273Z,1.80
2017-07-03T06:51:22.955Z,1.67
2017-07-03T06:53:51.467Z,2.30
2017-07-03T06:56:19.937Z,1.70
2017-07-03T06:58:48.806Z,3.40
2017-07-03T07:01:17.378Z,2.00
2017-07-03T07:03:45.921Z,1.70
2017-07-03T07:06:14.406Z,1.60
2017-07-03T07:08:42.900Z,2.43
2017-07-03T07:11:11.508Z,1.97
2017-07-03T07:13:40.249Z,2.10
2017-07-03T07:16:08.733Z,1.87
2017-07-03T07:18:37.240Z,2.00
2017-07-03T07:21:06.079Z,2.77
2017-07-03T07:23:35.096Z,1.90
2017-07-03T07:26:03.767Z,1.60
2017-07-03T07:28:32.418Z,1.87
2017-07-03T07:31:00.997Z,2.17
2017-07-03T07:33:31.888Z,1.70
2017-07-03T07:36:00.549Z,1.53
2017-07-03T07:38:29.174Z,1.90
2017-07-03T07:40:57.702Z,1.97
2017-07-03T07:43:26.205Z,1.10
2017-07-03T07:45:54.741Z,1.87
2017-07-03T07:48:24.981Z,1.33
2017-07-03T07:50:54.491Z,1.67
2017-07-03T07:53:23.960Z,1.90
2017-07-03T07:55:53.673Z,1.80
2017-07-03T07:58:22.228Z,1.47
2017-07-03T08:00:50.803Z,1.50
2017-07-03T08:03:19.322Z,1.40
2017-07-03T08:05:47.798Z,1.67
2017-07-03T08:08:16.303Z,1.60
2017-07-03T08:10:45.782Z,1.40
2017-07-03T08:13:14.570Z,1.50
2017-07-03T08:15:43.165Z,1.70
2017-07-03T08:18:11.814Z,1.60
2017-07-03T08:20:40.318Z,1.57
2017-07-03T08:23:08.965Z,1.37
2017-07-03T08:25:37.608Z,1.10
2017-07-03T08:28:06.069Z,1.20
2017-07-03T08:30:34.544Z,1.40
2017-07-03T08:33:02.989Z,1.33
2017-07-03T08:35:32.426Z,1.40
2017-07-03T08:38:01.256Z,1.63
2017-07-03T08:40:30.134Z,1.33
2017-07-03T08:42:59.890Z,1.17
2017-07-03T08:45:28.497Z,1.30
2017-07-03T08:47:56.994Z,1.50
2017-07-03T08:50:25.573Z,1.30
2017-07-03T08:52:54.048Z,1.30
2017-07-03T08:55:22.553Z,1.27
2017-07-03T08:57:51.730Z,1.10
2017-07-03T09:00:20.311Z,1.80
2017-07-03T09:02:49.032Z,1.40
2017-07-03T09:05:17.666Z,1.20
2017-07-03T09:07:46.146Z,1.57
2017-07-03T09:10:14.692Z,1.63
2017-07-03T09:12:43.164Z,0.90
2017-07-03T09:15:11.626Z,1.37
2017-07-03T09:17:40.098Z,1.20
2017-07-03T09:20:08.583Z,0.93
2017-07-03T09:22:37.989Z,1.10
2017-07-03T09:25:06.672Z,1.10
2017-07-03T09:27:35.324Z,1.13
2017-07-03T09:30:03.874Z,1.07
2017-07-03T09:32:32.340Z,1.80
2017-07-03T09:35:00.942Z,1.20
2017-07-03T09:37:29.901Z,0.90
2017-07-03T09:39:58.625Z,1.20
2017-07-03T09:42:27.124Z,1.40
2017-07-03T09:44:56.211Z,1.37
2017-07-03T09:47:25.365Z,1.70
2017-07-03T09:49:53.938Z,1.40
2017-07-03T09:52:22.635Z,1.17
2017-07-03T09:54:51.119Z,1.50
2017-07-03T09:57:19.846Z,1.40
2017-07-03T09:59:48.634Z,1.20
2017-07-03T10:02:17.246Z,1.10
2017-07-03T10:04:46.003Z,1.37
2017-07-03T10:07:14.662Z,1.60
2017-07-03T10:09:43.886Z,1.20
2017-07-03T10:12:12.381Z,1.43
2017-07-03T10:14:40.935Z,1.30
2017-07-03T10:17:09.685Z,1.17
2017-07-03T10:19:38.503Z,1.30
2017-07-03T10:22:06.973Z,1.40
2017-07-03T10:24:35.551Z,1.43
2017-07-03T10:27:04.030Z,1.10
2017-07-03T10:29:32.836Z,1.10
2017-07-03T10:32:01.404Z,1.17
2017-07-03T10:34:30.128Z,1.50
2017-07-03T10:36:58.641Z,0.90
2017-07-03T10:39:27.118Z,1.50
2017-07-03T10:41:55.663Z,1.60
2017-07-03T10:44:24.178Z,1.30
2017-07-03T10:46:52.751Z,1.50
2017-07-03T10:49:21.209Z,1.10
2017-07-03T10:51:49.817Z,1.70
2017-07-03T10:54:18.784Z,1.30
2017-07-03T10:56:47.262Z,1.60
2017-07-03T10:59:16.299Z,1.63
2017-07-03T11:01:44.893Z,1.60
2017-07-03T11:04:13.339Z,1.43
2017-07-03T11:06:41.894Z,1.40
2017-07-03T11:09:11.212Z,1.50
2017-07-03T11:11:40.193Z,1.80
2017-07-03T11:14:08.664Z,1.33
2017-07-03T11:16:37.899Z,1.60
2017-07-03T11:19:06.544Z,1.43
2017-07-03T11:21:35.882Z,2.03
2017-07-03T11:24:04.773Z,1.90
2017-07-03T11:26:33.378Z,1.40
2017-07-03T11:32:32.787Z,1.60
2017-07-03T11:37:29.885Z,1.93
2017-07-03T11:42:26.313Z,1.87
2017-07-03T11:44:54.792Z,1.60
2017-07-03T11:47:23.282Z,1.57
2017-07-03T11:49:51.965Z,1.53
2017-07-03T11:52:20.417Z,1.60
2017-07-03T11:54:48.960Z,1.40
2017-07-03T11:57:18.631Z,1.30
2017-07-03T11:59:47.921Z,1.60
2017-07-03T12:02:16.389Z,1.53
2017-07-03T12:04:44.925Z,1.40
2017-07-03T12:07:13.381Z,2.00
2017-07-03T12:09:41.943Z,1.70
2017-07-03T12:12:11.298Z,1.40
2017-07-03T12:14:39.752Z,1.87
2017-07-03T12:17:08.348Z,1.40
2017-07-03T12:19:36.935Z,1.37
2017-07-03T12:22:07.328Z,1.40
2017-07-03T12:24:38.161Z,1.80
2017-07-03T12:27:08.082Z,1.67
2017-07-03T12:29:41.181Z,1.70
2017-07-03T12:32:09.682Z,1.47
2017-07-03T12:34:38.307Z,1.27
2017-07-03T12:39:34.692Z,1.40
2017-07-03T12:42:05.339Z,1.50
2017-07-03T12:47:04.418Z,1.40
2017-07-03T12:49:34.455Z,1.70
2017-07-03T12:52:03.605Z,2.00
2017-07-03T12:54:32.100Z,1.70
2017-07-03T12:59:28.555Z,1.97
2017-07-03T13:04:25.133Z,1.67
2017-07-03T13:09:23.659Z,2.10
2017-07-03T13:21:44.185Z,1.55
2017-07-03T13:24:12.966Z,1.80
2017-07-03T13:26:41.553Z,1.80
2017-07-03T13:29:16.869Z,1.37
2017-07-03T13:31:46.028Z,1.60
2017-07-03T13:34:15.097Z,1.40
2017-07-03T13:36:43.823Z,1.80
2017-07-03T13:39:12.445Z,1.70
2017-07-03T13:41:41.056Z,1.80
2017-07-03T13:44:09.573Z,1.97
2017-07-03T13:46:38.092Z,1.93
2017-07-03T13:49:06.585Z,1.87
2017-07-03T13:51:35.160Z,1.63
2017-07-03T13:54:05.162Z,1.73
2017-07-03T13:56:33.677Z,1.47
2017-07-03T13:59:02.140Z,1.50
2017-07-03T14:01:30.749Z,1.80
2017-07-03T14:03:59.284Z,1.77
2017-07-03T14:06:28.686Z,1.90
2017-07-03T14:08:57.917Z,2.17
2017-07-03T14:11:26.416Z,2.27
2017-07-03T14:13:55.390Z,1.80
2017-07-03T14:16:24.048Z,2.00
2017-07-03T14:18:52.612Z,1.87
2017-07-03T14:21:22.004Z,1.70
2017-07-03T14:23:50.622Z,1.60
2017-07-03T14:26:29.828Z,1.87
2017-07-03T14:28:58.830Z,2.00
2017-07-03T14:31:27.357Z,1.77
2017-07-03T14:33:56.118Z,1.93
2017-07-03T14:36:24.628Z,1.70
2017-07-03T14:38:53.099Z,2.07
2017-07-03T14:41:21.698Z,1.80
2017-07-03T14:43:50.429Z,1.90
2017-07-03T14:46:19.217Z,1.93
2017-07-03T14:48:48.470Z,1.97
2017-07-03T14:51:17.134Z,2.47
2017-07-03T14:53:46.936Z,1.97
2017-07-03T14:56:15.681Z,1.93
2017-07-03T14:58:44.456Z,1.93
2017-07-03T15:01:13.141Z,1.57
2017-07-03T15:03:42.440Z,1.90
2017-07-03T15:06:10.962Z,1.60
2017-07-03T15:08:40.991Z,1.93
2017-07-03T15:11:09.653Z,2.37
2017-07-03T15:13:38.285Z,1.73
2017-07-03T15:16:06.817Z,1.50
2017-07-03T15:18:35.483Z,2.27
2017-07-03T15:21:04.231Z,1.23
2017-07-03T15:23:32.889Z,1.87
2017-07-03T15:26:01.489Z,1.67
2017-07-03T15:28:31.019Z,1.97
2017-07-03T15:30:59.521Z,1.83
2017-07-03T15:33:28.398Z,1.43
2017-07-03T15:35:56.987Z,1.53
2017-07-03T15:38:25.493Z,1.80
2017-07-03T15:40:54.218Z,1.70
2017-07-03T15:43:23.167Z,1.97
2017-07-03T15:45:51.833Z,1.50
2017-07-03T15:48:20.389Z,1.90
2017-07-03T15:50:49.620Z,1.53
2017-07-03T15:53:18.629Z,2.60
2017-07-03T15:55:47.290Z,2.13
2017-07-03T15:58:16.429Z,1.60
2017-07-03T16:00:44.898Z,2.47
2017-07-03T16:03:13.457Z,2.50
2017-07-03T16:05:43.665Z,2.00
2017-07-03T16:08:12.360Z,1.60
2017-07-03T16:10:40.924Z,2.03
2017-07-03T16:13:10.236Z,1.70
2017-07-03T16:15:38.769Z,1.93
2017-07-03T16:18:07.784Z,2.07
2017-07-03T16:20:37.969Z,2.00
2017-07-03T16:23:06.465Z,1.67
2017-07-03T16:25:34.968Z,1.80
2017-07-03T16:28:03.445Z,1.97
2017-07-03T16:30:31.987Z,1.97
2017-07-03T16:33:00.673Z,2.00
2017-07-03T16:35:29.213Z,1.60
2017-07-03T16:37:58.334Z,2.00
2017-07-03T16:40:26.895Z,2.50
2017-07-03T16:42:55.668Z,2.10
2017-07-03T16:45:24.243Z,2.20
2017-07-03T16:47:52.866Z,2.50
2017-07-03T16:50:21.435Z,2.63
2017-07-03T16:52:51.107Z,2.63
2017-07-03T16:55:19.610Z,2.20
2017-07-03T16:57:48.199Z,2.43
2017-07-03T17:00:16.920Z,2.50
2017-07-03T17:02:45.744Z,3.40
2017-07-03T17:05:14.232Z,4.77
2017-07-03T17:07:42.927Z,5.00
2017-07-03T17:10:11.452Z,5.40
2017-07-03T17:12:40.912Z,6.07
2017-07-03T17:15:09.547Z,7.73
2017-07-03T17:17:39.417Z,8.63
2017-07-03T17:20:08.113Z,7.40
2017-07-03T17:22:36.933Z,9.37
2017-07-03T17:25:05.660Z,9.53
2017-07-03T17:27:34.489Z,10.03
2017-07-03T17:30:03.456Z,10.80
2017-07-03T17:32:31.963Z,10.03
2017-07-03T17:35:00.512Z,9.40
2017-07-03T17:37:29.890Z,9.47
2017-07-03T17:39:58.501Z,9.60
2017-07-03T17:42:27.054Z,10.33
2017-07-03T17:44:56.385Z,9.00
2017-07-03T17:47:25.567Z,9.10
2017-07-03T17:49:54.102Z,9.70
2017-07-03T17:52:22.594Z,10.27
2017-07-03T17:54:51.097Z,9.17
2017-07-03T17:57:19.596Z,10.60
2017-07-03T17:59:48.125Z,10.63
2017-07-03T18:02:17.035Z,9.90
2017-07-03T18:04:45.783Z,9.90
2017-07-03T18:07:14.365Z,9.50
2017-07-03T18:09:43.364Z,8.77
2017-07-03T18:12:12.156Z,7.97
2017-07-03T18:14:40.941Z,10.00
2017-07-03T18:17:09.580Z,9.37
2017-07-03T18:19:38.153Z,10.40
2017-07-03T18:22:06.881Z,9.43
2017-07-03T18:24:35.819Z,9.37
2017-07-03T18:27:09.791Z,10.80
2017-07-03T18:29:38.565Z,10.63
2017-07-03T18:32:07.327Z,11.30
2017-07-03T18:34:35.966Z,10.37
2017-07-03T18:37:04.835Z,9.13
2017-07-03T18:39:35.483Z,8.07
2017-07-03T18:42:04.079Z,8.27
2017-07-03T18:44:32.746Z,6.47
2017-07-03T18:47:01.448Z,6.30
2017-07-03T18:49:29.964Z,5.33
2017-07-03T18:51:58.621Z,4.57
2017-07-03T18:54:27.187Z,4.80
2017-07-03T18:56:55.689Z,4.47
2017-07-03T18:59:24.197Z,3.70
2017-07-03T19:01:52.735Z,3.80
2017-07-03T19:04:22.493Z,4.23
2017-07-03T19:06:51.013Z,4.77
2017-07-03T19:09:19.529Z,3.90
2017-07-03T19:11:48.152Z,3.60
2017-07-03T19:14:16.700Z,3.93
2017-07-03T19:16:45.404Z,4.13
2017-07-03T19:19:13.945Z,4.03
2017-07-03T19:21:42.694Z,4.10
2017-07-03T19:24:11.629Z,3.73
2017-07-03T19:26:41.760Z,4.37
2017-07-03T19:29:10.802Z,4.70
2017-07-03T19:31:39.696Z,4.43
2017-07-03T19:34:08.275Z,4.70
2017-07-03T19:36:36.860Z,5.07
2017-07-03T19:39:05.493Z,4.73
2017-07-03T19:41:34.294Z,4.30
2017-07-03T19:44:02.920Z,5.00
2017-07-03T19:46:31.434Z,5.10
2017-07-03T19:49:00.041Z,5.17
2017-07-03T19:51:28.917Z,5.73
2017-07-03T19:53:58.169Z,5.10
2017-07-03T19:56:26.943Z,5.00
2017-07-03T19:58:55.708Z,6.80
2017-07-03T20:01:24.316Z,5.33
2017-07-03T20:03:53.713Z,5.97
2017-07-03T20:06:22.525Z,6.03
2017-07-03T20:08:51.198Z,7.13
2017-07-03T20:11:20.391Z,6.80
2017-07-03T20:13:49.021Z,7.40
2017-07-03T20:16:17.563Z,6.03
2017-07-03T20:18:46.361Z,6.73
2017-07-03T20:21:15.169Z,6.93
2017-07-03T20:23:44.556Z,7.70
2017-07-03T20:26:13.181Z,7.40
2017-07-03T20:28:42.050Z,6.53
2017-07-03T20:31:11.389Z,6.60
2017-07-03T20:33:41.902Z,6.40
2017-07-03T20:36:10.687Z,6.70
2017-07-03T20:38:39.250Z,8.17
2017-07-03T20:41:07.910Z,7.07
2017-07-03T20:43:37.265Z,7.87
2017-07-03T20:46:06.018Z,7.27
2017-07-03T20:48:34.701Z,7.60
2017-07-03T20:51:03.481Z,7.70
2017-07-03T20:53:33.308Z,6.50
2017-07-03T20:56:02.289Z,8.77
2017-07-03T20:58:31.082Z,6.30
2017-07-03T21:00:59.852Z,7.93
2017-07-03T21:03:29.484Z,7.40
2017-07-03T21:05:58.245Z,6.83
2017-07-03T21:08:27.680Z,8.00
2017-07-03T21:10:56.723Z,8.30
2017-07-03T21:13:25.772Z,7.93
2017-07-03T21:15:54.460Z,7.83
2017-07-03T21:18:23.033Z,7.77
2017-07-03T21:20:51.943Z,7.80
2017-07-03T21:23:20.587Z,7.80
2017-07-03T21:25:49.932Z,8.93
2017-07-03T21:28:18.595Z,9.73
2017-07-03T21:30:47.093Z,7.73
2017-07-03T21:33:15.877Z,8.30
2017-07-03T21:35:44.390Z,9.20
2017-07-03T21:38:12.872Z,7.60
2017-07-03T21:40:41.382Z,9.27
2017-07-03T21:43:09.882Z,7.97
2017-07-03T21:45:38.371Z,7.80
2017-07-03T21:48:06.886Z,8.50
2017-07-03T21:50:35.370Z,7.70
2017-07-03T21:53:04.280Z,8.87
2017-07-03T21:55:32.940Z,8.27
2017-07-03T21:58:01.452Z,8.10
2017-07-03T22:00:29.948Z,8.37
2017-07-03T22:02:58.588Z,7.70
2017-07-03T22:05:27.524Z,7.60
2017-07-03T22:07:56.046Z,8.60
2017-07-03T22:10:25.309Z,8.40
2017-07-03T22:12:53.847Z,8.03
2017-07-03T22:15:22.556Z,7.63
2017-07-03T22:17:51.495Z,7.53
2017-07-03T22:20:20.025Z,8.00
2017-07-03T22:22:48.658Z,8.20
2017-07-03T22:25:17.471Z,8.13
2017-07-03T22:27:45.993Z,8.57
2017-07-03T22:30:14.828Z,8.20
2017-07-03T22:32:44.038Z,8.03
2017-07-03T22:35:13.266Z,8.00
2017-07-03T22:37:43.380Z,9.00
2017-07-03T22:40:12.725Z,7.80
2017-07-03T22:42:41.799Z,8.37
2017-07-03T22:45:10.384Z,8.37
2017-07-03T22:47:38.920Z,7.37
2017-07-03T22:50:07.456Z,9.33
2017-07-03T22:52:35.997Z,7.43
2017-07-03T22:55:04.707Z,8.07
2017-07-03T22:57:33.241Z,8.47
2017-07-03T23:00:01.951Z,8.63
2017-07-03T23:02:30.686Z,8.73
2017-07-03T23:04:59.275Z,7.97
2017-07-03T23:07:27.754Z,7.87
2017-07-03T23:09:56.518Z,9.53
2017-07-03T23:12:25.149Z,10.60
2017-07-03T23:14:53.641Z,9.20
2017-07-03T23:17:22.489Z,9.03
2017-07-03T23:19:51.125Z,9.00
2017-07-03T23:22:19.688Z,9.60
2017-07-03T23:24:48.389Z,9.43
2017-07-03T23:27:17.274Z,9.90
2017-07-03T23:29:45.730Z,8.60
2017-07-03T23:32:14.211Z,8.83
2017-07-03T23:34:42.984Z,9.93
2017-07-03T23:37:11.491Z,9.10
2017-07-03T23:39:39.964Z,9.93
2017-07-03T23:42:08.450Z,10.10
2017-07-03T23:44:37.009Z,9.40
2017-07-03T23:47:05.465Z,10.67
2017-07-03T23:49:35.305Z,8.90
2017-07-03T23:52:03.756Z,9.80
2017-07-03T23:54:32.413Z,10.70
2017-07-03T23:57:01.203Z,9.90
2017-07-03T23:59:29.889Z,10.87
